sensor_id;sensor_type;location;lat;lon;timestamp;temperature;humidity
11229;DHT22;5671;47.936;8.716;2023-02-13T00:02:11;-2.00;88.60
11229;DHT22;5671;47.936;8.716;2023-02-13T00:04:38;-2.00;88.50
11229;DHT22;5671;47.936;8.716;2023-02-13T00:07:07;-2.00;88.60
11229;DHT22;5671;47.936;8.716;2023-02-13T00:09:34;-2.00;88.20
11229;DHT22;5671;47.936;8.716;2023-02-13T00:12:01;-2.00;87.80
11229;DHT22;5671;47.936;8.716;2023-02-13T00:14:29;-2.10;87.80
11229;DHT22;5671;47.936;8.716;2023-02-13T00:16:56;-2.10;87.80
11229;DHT22;5671;47.936;8.716;2023-02-13T00:19:29;-2.10;87.80
11229;DHT22;5671;47.936;8.716;2023-02-13T00:21:56;-2.20;87.50
11229;DHT22;5671;47.936;8.716;2023-02-13T00:24:23;-2.20;87.20
11229;DHT22;5671;47.936;8.716;2023-02-13T00:26:50;-2.20;86.80
11229;DHT22;5671;47.936;8.716;2023-02-13T00:29:17;-2.20;86.60
11229;DHT22;5671;47.936;8.716;2023-02-13T00:31:45;-2.20;86.50
11229;DHT22;5671;47.936;8.716;2023-02-13T00:34:12;-2.30;86.60
11229;DHT22;5671;47.936;8.716;2023-02-13T00:36:38;-2.30;87.10
11229;DHT22;5671;47.936;8.716;2023-02-13T00:39:05;-2.40;87.40
11229;DHT22;5671;47.936;8.716;2023-02-13T00:41:32;-2.40;87.80
11229;DHT22;5671;47.936;8.716;2023-02-13T00:43:59;-2.40;88.00
11229;DHT22;5671;47.936;8.716;2023-02-13T00:46:25;-2.50;88.40
11229;DHT22;5671;47.936;8.716;2023-02-13T00:48:54;-2.60;88.50
11229;DHT22;5671;47.936;8.716;2023-02-13T00:51:20;-2.60;89.30
11229;DHT22;5671;47.936;8.716;2023-02-13T00:53:47;-2.60;89.20
11229;DHT22;5671;47.936;8.716;2023-02-13T00:56:14;-2.60;89.30
11229;DHT22;5671;47.936;8.716;2023-02-13T00:58:41;-2.60;89.80
11229;DHT22;5671;47.936;8.716;2023-02-13T01:01:07;-2.60;90.00
11229;DHT22;5671;47.936;8.716;2023-02-13T01:03:34;-2.50;90.50
11229;DHT22;5671;47.936;8.716;2023-02-13T01:06:03;-2.50;90.90
11229;DHT22;5671;47.936;8.716;2023-02-13T01:08:30;-2.50;90.60
11229;DHT22;5671;47.936;8.716;2023-02-13T01:10:56;-2.40;91.00
11229;DHT22;5671;47.936;8.716;2023-02-13T01:13:24;-2.30;91.70
11229;DHT22;5671;47.936;8.716;2023-02-13T01:15:51;-2.30;92.00
11229;DHT22;5671;47.936;8.716;2023-02-13T01:18:19;-2.20;92.10
11229;DHT22;5671;47.936;8.716;2023-02-13T01:20:56;-2.20;92.50
11229;DHT22;5671;47.936;8.716;2023-02-13T01:23:24;-2.20;92.80
11229;DHT22;5671;47.936;8.716;2023-02-13T01:25:51;-2.10;92.70
11229;DHT22;5671;47.936;8.716;2023-02-13T01:28:18;-2.10;92.60
11229;DHT22;5671;47.936;8.716;2023-02-13T01:30:45;-2.00;92.70
11229;DHT22;5671;47.936;8.716;2023-02-13T01:33:17;-2.00;92.70
11229;DHT22;5671;47.936;8.716;2023-02-13T01:35:44;-2.00;92.70
11229;DHT22;5671;47.936;8.716;2023-02-13T01:38:11;-1.90;92.50
11229;DHT22;5671;47.936;8.716;2023-02-13T01:40:45;-1.80;92.80
11229;DHT22;5671;47.936;8.716;2023-02-13T01:43:12;-1.80;92.90
11229;DHT22;5671;47.936;8.716;2023-02-13T01:45:39;-1.70;93.00
11229;DHT22;5671;47.936;8.716;2023-02-13T01:48:10;-1.70;92.90
11229;DHT22;5671;47.936;8.716;2023-02-13T01:50:42;-1.70;92.90
11229;DHT22;5671;47.936;8.716;2023-02-13T01:53:19;-1.60;92.50
11229;DHT22;5671;47.936;8.716;2023-02-13T01:55:50;-1.60;92.20
11229;DHT22;5671;47.936;8.716;2023-02-13T01:58:20;-1.50;92.20
11229;DHT22;5671;47.936;8.716;2023-02-13T02:00:48;-1.50;92.20
11229;DHT22;5671;47.936;8.716;2023-02-13T02:03:20;-1.50;92.30
11229;DHT22;5671;47.936;8.716;2023-02-13T02:05:50;-1.50;92.20
11229;DHT22;5671;47.936;8.716;2023-02-13T02:08:18;-1.40;92.10
11229;DHT22;5671;47.936;8.716;2023-02-13T02:10:45;-1.40;91.80
11229;DHT22;5671;47.936;8.716;2023-02-13T02:13:15;-1.40;91.60
11229;DHT22;5671;47.936;8.716;2023-02-13T02:15:43;-1.40;91.30
11229;DHT22;5671;47.936;8.716;2023-02-13T02:18:13;-1.40;91.00
11229;DHT22;5671;47.936;8.716;2023-02-13T02:20:58;-1.40;90.80
11229;DHT22;5671;47.936;8.716;2023-02-13T02:26:49;-1.30;90.60
11229;DHT22;5671;47.936;8.716;2023-02-13T02:32:32;-1.30;90.30
11229;DHT22;5671;47.936;8.716;2023-02-13T02:35:12;-1.30;90.30
11229;DHT22;5671;47.936;8.716;2023-02-13T02:37:57;-1.30;90.30
11229;DHT22;5671;47.936;8.716;2023-02-13T02:40:33;-1.30;89.90
11229;DHT22;5671;47.936;8.716;2023-02-13T02:43:21;-1.30;89.80
11229;DHT22;5671;47.936;8.716;2023-02-13T02:45:53;-1.20;89.50
11229;DHT22;5671;47.936;8.716;2023-02-13T02:48:29;-1.20;89.30
11229;DHT22;5671;47.936;8.716;2023-02-13T02:51:21;-1.20;89.30
11229;DHT22;5671;47.936;8.716;2023-02-13T02:53:56;-1.20;89.70
11229;DHT22;5671;47.936;8.716;2023-02-13T02:56:29;-1.20;89.90
11229;DHT22;5671;47.936;8.716;2023-02-13T02:59:01;-1.20;90.10
11229;DHT22;5671;47.936;8.716;2023-02-13T03:01:47;-1.20;90.30
11229;DHT22;5671;47.936;8.716;2023-02-13T03:04:38;-1.10;90.00
11229;DHT22;5671;47.936;8.716;2023-02-13T03:07:24;-1.10;89.50
11229;DHT22;5671;47.936;8.716;2023-02-13T03:09:52;-1.10;89.10
11229;DHT22;5671;47.936;8.716;2023-02-13T03:12:43;-1.10;89.30
11229;DHT22;5671;47.936;8.716;2023-02-13T03:15:29;-1.10;89.30
11229;DHT22;5671;47.936;8.716;2023-02-13T03:17:57;-1.10;89.30
11229;DHT22;5671;47.936;8.716;2023-02-13T03:20:45;-1.00;89.60
11229;DHT22;5671;47.936;8.716;2023-02-13T03:23:39;-1.00;89.30
11229;DHT22;5671;47.936;8.716;2023-02-13T03:26:31;-1.00;88.80
11229;DHT22;5671;47.936;8.716;2023-02-13T03:29:16;-1.00;88.60
11229;DHT22;5671;47.936;8.716;2023-02-13T03:32:09;-0.90;88.30
11229;DHT22;5671;47.936;8.716;2023-02-13T03:34:42;-0.90;87.60
11229;DHT22;5671;47.936;8.716;2023-02-13T03:40:29;-0.90;87.40
11229;DHT22;5671;47.936;8.716;2023-02-13T03:43:05;-0.80;87.30
11229;DHT22;5671;47.936;8.716;2023-02-13T03:45:36;-0.80;87.30
11229;DHT22;5671;47.936;8.716;2023-02-13T03:48:24;-0.80;87.00
11229;DHT22;5671;47.936;8.716;2023-02-13T03:51:15;-0.80;87.20
11229;DHT22;5671;47.936;8.716;2023-02-13T03:53:45;-0.80;87.90
11229;DHT22;5671;47.936;8.716;2023-02-13T03:56:15;-0.80;88.00
11229;DHT22;5671;47.936;8.716;2023-02-13T03:59:02;-0.80;87.90
11229;DHT22;5671;47.936;8.716;2023-02-13T04:01:44;-0.70;87.20
11229;DHT22;5671;47.936;8.716;2023-02-13T04:04:19;-0.70;87.70
11229;DHT22;5671;47.936;8.716;2023-02-13T04:06:51;-0.70;87.50
11229;DHT22;5671;47.936;8.716;2023-02-13T04:09:22;-0.70;87.10
11229;DHT22;5671;47.936;8.716;2023-02-13T04:11:55;-0.60;87.60
11229;DHT22;5671;47.936;8.716;2023-02-13T04:14:26;-0.70;87.60
11229;DHT22;5671;47.936;8.716;2023-02-13T04:16:56;-0.60;87.40
11229;DHT22;5671;47.936;8.716;2023-02-13T04:19:25;-0.60;87.20
11229;DHT22;5671;47.936;8.716;2023-02-13T04:21:56;-0.60;87.20
11229;DHT22;5671;47.936;8.716;2023-02-13T04:24:24;-0.60;87.20
11229;DHT22;5671;47.936;8.716;2023-02-13T04:26:52;-0.60;87.20
11229;DHT22;5671;47.936;8.716;2023-02-13T04:29:19;-0.50;87.10
11229;DHT22;5671;47.936;8.716;2023-02-13T04:31:46;-0.50;87.10
11229;DHT22;5671;47.936;8.716;2023-02-13T04:34:13;-0.50;87.50
11229;DHT22;5671;47.936;8.716;2023-02-13T04:36:40;-0.50;87.40
11229;DHT22;5671;47.936;8.716;2023-02-13T04:39:07;-0.50;88.00
11229;DHT22;5671;47.936;8.716;2023-02-13T04:41:35;-0.40;88.50
11229;DHT22;5671;47.936;8.716;2023-02-13T04:44:02;-0.40;88.40
11229;DHT22;5671;47.936;8.716;2023-02-13T04:46:29;-0.40;88.60
11229;DHT22;5671;47.936;8.716;2023-02-13T04:48:55;-0.40;88.70
11229;DHT22;5671;47.936;8.716;2023-02-13T04:51:22;-0.30;88.90
11229;DHT22;5671;47.936;8.716;2023-02-13T04:53:49;-0.30;88.90
11229;DHT22;5671;47.936;8.716;2023-02-13T04:56:16;-0.30;89.20
11229;DHT22;5671;47.936;8.716;2023-02-13T04:58:44;-0.30;88.90
11229;DHT22;5671;47.936;8.716;2023-02-13T05:01:11;-0.30;88.60
11229;DHT22;5671;47.936;8.716;2023-02-13T05:03:38;-0.30;88.80
11229;DHT22;5671;47.936;8.716;2023-02-13T05:06:05;-0.30;88.50
11229;DHT22;5671;47.936;8.716;2023-02-13T05:08:32;-0.20;88.60
11229;DHT22;5671;47.936;8.716;2023-02-13T05:10:58;-0.20;88.50
11229;DHT22;5671;47.936;8.716;2023-02-13T05:13:28;-0.20;88.50
11229;DHT22;5671;47.936;8.716;2023-02-13T05:16:14;-0.20;88.60
11229;DHT22;5671;47.936;8.716;2023-02-13T05:18:40;-0.20;88.40
11229;DHT22;5671;47.936;8.716;2023-02-13T05:21:08;-0.20;88.70
11229;DHT22;5671;47.936;8.716;2023-02-13T05:23:53;-0.20;88.50
11229;DHT22;5671;47.936;8.716;2023-02-13T05:26:19;-0.20;88.50
11229;DHT22;5671;47.936;8.716;2023-02-13T05:28:46;-0.20;88.50
11229;DHT22;5671;47.936;8.716;2023-02-13T05:31:28;-0.20;88.40
11229;DHT22;5671;47.936;8.716;2023-02-13T05:33:55;-0.20;88.50
11229;DHT22;5671;47.936;8.716;2023-02-13T05:36:22;-0.20;88.50
11229;DHT22;5671;47.936;8.716;2023-02-13T05:38:49;-0.20;88.40
11229;DHT22;5671;47.936;8.716;2023-02-13T05:41:15;-0.20;88.40
11229;DHT22;5671;47.936;8.716;2023-02-13T05:43:42;-0.20;88.30
11229;DHT22;5671;47.936;8.716;2023-02-13T05:46:09;-0.20;88.40
11229;DHT22;5671;47.936;8.716;2023-02-13T05:48:37;-0.20;88.40
11229;DHT22;5671;47.936;8.716;2023-02-13T05:51:05;-0.30;88.30
11229;DHT22;5671;47.936;8.716;2023-02-13T05:53:32;-0.20;88.10
11229;DHT22;5671;47.936;8.716;2023-02-13T05:55:59;-0.30;88.10
11229;DHT22;5671;47.936;8.716;2023-02-13T05:58:26;-0.20;88.30
11229;DHT22;5671;47.936;8.716;2023-02-13T06:00:54;-0.20;88.20
11229;DHT22;5671;47.936;8.716;2023-02-13T06:03:22;-0.30;88.30
11229;DHT22;5671;47.936;8.716;2023-02-13T06:05:50;-0.30;88.30
11229;DHT22;5671;47.936;8.716;2023-02-13T06:08:16;-0.30;88.50
11229;DHT22;5671;47.936;8.716;2023-02-13T06:10:43;-0.30;88.60
11229;DHT22;5671;47.936;8.716;2023-02-13T06:13:11;-0.30;88.60
11229;DHT22;5671;47.936;8.716;2023-02-13T06:15:38;-0.30;88.70
11229;DHT22;5671;47.936;8.716;2023-02-13T06:18:05;-0.30;88.70
11229;DHT22;5671;47.936;8.716;2023-02-13T06:20:32;-0.30;88.60
11229;DHT22;5671;47.936;8.716;2023-02-13T06:23:00;-0.30;88.60
11229;DHT22;5671;47.936;8.716;2023-02-13T06:25:27;-0.30;88.60
11229;DHT22;5671;47.936;8.716;2023-02-13T06:27:54;-0.40;88.70
11229;DHT22;5671;47.936;8.716;2023-02-13T06:30:22;-0.30;88.60
11229;DHT22;5671;47.936;8.716;2023-02-13T06:32:48;-0.30;88.30
11229;DHT22;5671;47.936;8.716;2023-02-13T06:35:15;-0.30;88.30
11229;DHT22;5671;47.936;8.716;2023-02-13T06:37:42;-0.40;88.30
11229;DHT22;5671;47.936;8.716;2023-02-13T06:40:12;-0.40;88.10
11229;DHT22;5671;47.936;8.716;2023-02-13T06:42:40;-0.40;88.10
11229;DHT22;5671;47.936;8.716;2023-02-13T06:45:08;-0.40;88.50
11229;DHT22;5671;47.936;8.716;2023-02-13T06:47:35;-0.40;88.30
11229;DHT22;5671;47.936;8.716;2023-02-13T06:50:02;-0.40;88.20
11229;DHT22;5671;47.936;8.716;2023-02-13T06:52:28;-0.40;88.00
11229;DHT22;5671;47.936;8.716;2023-02-13T06:54:55;-0.40;87.70
11229;DHT22;5671;47.936;8.716;2023-02-13T06:57:24;-0.30;87.80
11229;DHT22;5671;47.936;8.716;2023-02-13T06:59:51;-0.40;87.80
11229;DHT22;5671;47.936;8.716;2023-02-13T07:02:18;-0.40;87.70
11229;DHT22;5671;47.936;8.716;2023-02-13T07:04:44;-0.40;87.80
11229;DHT22;5671;47.936;8.716;2023-02-13T07:07:11;-0.40;87.80
11229;DHT22;5671;47.936;8.716;2023-02-13T07:09:38;-0.30;87.40
11229;DHT22;5671;47.936;8.716;2023-02-13T07:12:06;-0.40;87.40
11229;DHT22;5671;47.936;8.716;2023-02-13T07:14:34;-0.40;87.80
11229;DHT22;5671;47.936;8.716;2023-02-13T07:17:01;-0.40;87.80
11229;DHT22;5671;47.936;8.716;2023-02-13T07:19:28;-0.40;87.50
11229;DHT22;5671;47.936;8.716;2023-02-13T07:21:54;-0.40;87.40
11229;DHT22;5671;47.936;8.716;2023-02-13T07:24:21;-0.40;87.30
11229;DHT22;5671;47.936;8.716;2023-02-13T07:26:48;-0.40;87.30
11229;DHT22;5671;47.936;8.716;2023-02-13T07:29:15;-0.40;87.30
11229;DHT22;5671;47.936;8.716;2023-02-13T07:31:43;-0.40;87.10
11229;DHT22;5671;47.936;8.716;2023-02-13T07:34:10;-0.40;86.90
11229;DHT22;5671;47.936;8.716;2023-02-13T07:36:36;-0.40;86.80
11229;DHT22;5671;47.936;8.716;2023-02-13T07:39:03;-0.40;86.90
11229;DHT22;5671;47.936;8.716;2023-02-13T07:41:30;-0.40;87.00
11229;DHT22;5671;47.936;8.716;2023-02-13T07:43:57;-0.40;87.10
11229;DHT22;5671;47.936;8.716;2023-02-13T07:46:23;-0.40;87.20
11229;DHT22;5671;47.936;8.716;2023-02-13T07:48:52;-0.40;87.10
11229;DHT22;5671;47.936;8.716;2023-02-13T07:51:19;-0.40;87.30
11229;DHT22;5671;47.936;8.716;2023-02-13T07:53:49;-0.40;87.40
11229;DHT22;5671;47.936;8.716;2023-02-13T07:56:16;-0.30;87.20
11229;DHT22;5671;47.936;8.716;2023-02-13T07:58:43;-0.30;87.10
11229;DHT22;5671;47.936;8.716;2023-02-13T08:01:12;-0.30;87.60
11229;DHT22;5671;47.936;8.716;2023-02-13T08:03:39;-0.30;87.90
11229;DHT22;5671;47.936;8.716;2023-02-13T08:06:08;-0.30;87.90
11229;DHT22;5671;47.936;8.716;2023-02-13T08:08:35;-0.30;87.60
11229;DHT22;5671;47.936;8.716;2023-02-13T08:11:05;-0.30;87.60
11229;DHT22;5671;47.936;8.716;2023-02-13T08:13:49;-0.30;87.80
11229;DHT22;5671;47.936;8.716;2023-02-13T08:16:16;-0.30;88.00
11229;DHT22;5671;47.936;8.716;2023-02-13T08:18:43;-0.30;88.10
11229;DHT22;5671;47.936;8.716;2023-02-13T08:21:11;-0.30;88.00
11229;DHT22;5671;47.936;8.716;2023-02-13T08:23:39;-0.20;88.10
11229;DHT22;5671;47.936;8.716;2023-02-13T08:26:06;-0.20;88.00
11229;DHT22;5671;47.936;8.716;2023-02-13T08:28:36;-0.20;88.00
11229;DHT22;5671;47.936;8.716;2023-02-13T08:31:09;-0.20;87.90
11229;DHT22;5671;47.936;8.716;2023-02-13T08:33:36;-0.20;88.00
11229;DHT22;5671;47.936;8.716;2023-02-13T08:36:04;-0.20;87.90
11229;DHT22;5671;47.936;8.716;2023-02-13T08:38:33;-0.20;87.90
11229;DHT22;5671;47.936;8.716;2023-02-13T08:41:00;-0.10;87.90
11229;DHT22;5671;47.936;8.716;2023-02-13T08:43:27;-0.10;87.70
11229;DHT22;5671;47.936;8.716;2023-02-13T08:45:57;-0.10;87.80
11229;DHT22;5671;47.936;8.716;2023-02-13T08:48:24;-0.10;87.70
11229;DHT22;5671;47.936;8.716;2023-02-13T08:50:50;0.00;87.60
11229;DHT22;5671;47.936;8.716;2023-02-13T08:53:17;0.00;87.80
11229;DHT22;5671;47.936;8.716;2023-02-13T08:55:52;0.00;87.70
11229;DHT22;5671;47.936;8.716;2023-02-13T08:58:19;0.10;87.30
11229;DHT22;5671;47.936;8.716;2023-02-13T09:00:45;0.10;87.40
11229;DHT22;5671;47.936;8.716;2023-02-13T09:03:13;0.10;87.30
11229;DHT22;5671;47.936;8.716;2023-02-13T09:05:40;0.10;87.40
11229;DHT22;5671;47.936;8.716;2023-02-13T09:08:06;0.20;87.50
11229;DHT22;5671;47.936;8.716;2023-02-13T09:10:36;0.20;87.70
11229;DHT22;5671;47.936;8.716;2023-02-13T09:13:05;0.20;87.80
11229;DHT22;5671;47.936;8.716;2023-02-13T09:15:32;0.20;87.70
11229;DHT22;5671;47.936;8.716;2023-02-13T09:17:59;0.30;87.90
11229;DHT22;5671;47.936;8.716;2023-02-13T09:20:26;0.30;87.70
11229;DHT22;5671;47.936;8.716;2023-02-13T09:22:54;0.30;87.60
11229;DHT22;5671;47.936;8.716;2023-02-13T09:25:22;0.30;87.60
11229;DHT22;5671;47.936;8.716;2023-02-13T09:27:49;0.30;87.50
11229;DHT22;5671;47.936;8.716;2023-02-13T09:30:17;0.30;87.20
11229;DHT22;5671;47.936;8.716;2023-02-13T09:32:48;0.40;87.10
11229;DHT22;5671;47.936;8.716;2023-02-13T09:35:16;0.40;87.40
11229;DHT22;5671;47.936;8.716;2023-02-13T09:37:43;0.40;87.50
11229;DHT22;5671;47.936;8.716;2023-02-13T09:40:17;0.40;87.20
11229;DHT22;5671;47.936;8.716;2023-02-13T09:42:44;0.50;86.80
11229;DHT22;5671;47.936;8.716;2023-02-13T09:45:13;0.50;86.50
11229;DHT22;5671;47.936;8.716;2023-02-13T09:47:43;0.50;86.30
11229;DHT22;5671;47.936;8.716;2023-02-13T09:50:13;0.60;86.30
11229;DHT22;5671;47.936;8.716;2023-02-13T09:52:43;0.60;86.60
11229;DHT22;5671;47.936;8.716;2023-02-13T09:55:15;0.60;86.70
11229;DHT22;5671;47.936;8.716;2023-02-13T09:57:44;0.60;86.70
11229;DHT22;5671;47.936;8.716;2023-02-13T10:00:18;0.70;86.80
11229;DHT22;5671;47.936;8.716;2023-02-13T10:02:55;0.70;86.70
11229;DHT22;5671;47.936;8.716;2023-02-13T10:05:36;0.70;86.60
11229;DHT22;5671;47.936;8.716;2023-02-13T10:08:15;0.70;86.80
11229;DHT22;5671;47.936;8.716;2023-02-13T10:10:50;0.80;86.70
11229;DHT22;5671;47.936;8.716;2023-02-13T10:13:49;0.80;86.60
11229;DHT22;5671;47.936;8.716;2023-02-13T10:16:21;0.80;86.70
11229;DHT22;5671;47.936;8.716;2023-02-13T10:18:53;0.80;86.80
11229;DHT22;5671;47.936;8.716;2023-02-13T10:21:23;0.80;86.80
11229;DHT22;5671;47.936;8.716;2023-02-13T10:23:56;0.80;87.00
11229;DHT22;5671;47.936;8.716;2023-02-13T10:26:27;0.80;86.90
11229;DHT22;5671;47.936;8.716;2023-02-13T10:29:11;0.80;86.90
11229;DHT22;5671;47.936;8.716;2023-02-13T10:31:59;0.80;86.70
11229;DHT22;5671;47.936;8.716;2023-02-13T10:34:33;0.90;86.80
11229;DHT22;5671;47.936;8.716;2023-02-13T10:37:02;0.90;86.70
11229;DHT22;5671;47.936;8.716;2023-02-13T10:39:31;0.90;86.70
11229;DHT22;5671;47.936;8.716;2023-02-13T10:42:06;0.90;86.60
11229;DHT22;5671;47.936;8.716;2023-02-13T10:44:48;0.90;86.30
11229;DHT22;5671;47.936;8.716;2023-02-13T10:47:29;1.00;86.20
11229;DHT22;5671;47.936;8.716;2023-02-13T10:50:13;1.00;86.10
11229;DHT22;5671;47.936;8.716;2023-02-13T10:52:49;1.00;86.30
11229;DHT22;5671;47.936;8.716;2023-02-13T10:58:18;1.10;86.40
11229;DHT22;5671;47.936;8.716;2023-02-13T11:00:48;1.20;86.20
11229;DHT22;5671;47.936;8.716;2023-02-13T11:03:19;1.20;86.10
11229;DHT22;5671;47.936;8.716;2023-02-13T11:05:49;1.20;86.20
11229;DHT22;5671;47.936;8.716;2023-02-13T11:08:19;1.20;86.20
11229;DHT22;5671;47.936;8.716;2023-02-13T11:10:46;1.20;86.10
11229;DHT22;5671;47.936;8.716;2023-02-13T11:13:15;1.30;85.90
11229;DHT22;5671;47.936;8.716;2023-02-13T11:15:59;1.30;85.50
11229;DHT22;5671;47.936;8.716;2023-02-13T11:18:28;1.40;85.10
11229;DHT22;5671;47.936;8.716;2023-02-13T11:21:05;1.40;85.10
11229;DHT22;5671;47.936;8.716;2023-02-13T11:23:36;1.40;85.10
11229;DHT22;5671;47.936;8.716;2023-02-13T11:26:06;1.50;85.10
11229;DHT22;5671;47.936;8.716;2023-02-13T11:28:36;1.50;85.40
11229;DHT22;5671;47.936;8.716;2023-02-13T11:31:23;1.60;85.30
11229;DHT22;5671;47.936;8.716;2023-02-13T11:33:51;1.60;84.90
11229;DHT22;5671;47.936;8.716;2023-02-13T11:36:25;1.70;84.60
11229;DHT22;5671;47.936;8.716;2023-02-13T11:39:00;1.80;84.60
11229;DHT22;5671;47.936;8.716;2023-02-13T11:41:29;1.80;84.50
11229;DHT22;5671;47.936;8.716;2023-02-13T11:43:58;1.80;84.30
11229;DHT22;5671;47.936;8.716;2023-02-13T11:46:28;1.80;84.20
11229;DHT22;5671;47.936;8.716;2023-02-13T11:48:57;1.90;84.10
11229;DHT22;5671;47.936;8.716;2023-02-13T11:51:37;1.90;84.20
11229;DHT22;5671;47.936;8.716;2023-02-13T11:54:05;2.00;84.00
11229;DHT22;5671;47.936;8.716;2023-02-13T11:56:47;2.00;83.80
11229;DHT22;5671;47.936;8.716;2023-02-13T11:59:14;2.10;83.50
11229;DHT22;5671;47.936;8.716;2023-02-13T12:01:41;2.10;83.40
11229;DHT22;5671;47.936;8.716;2023-02-13T12:04:14;2.10;83.60
11229;DHT22;5671;47.936;8.716;2023-02-13T12:06:58;2.20;82.80
11229;DHT22;5671;47.936;8.716;2023-02-13T12:09:26;2.10;83.30
11229;DHT22;5671;47.936;8.716;2023-02-13T12:11:56;2.20;83.10
11229;DHT22;5671;47.936;8.716;2023-02-13T12:14:27;2.20;82.70
11229;DHT22;5671;47.936;8.716;2023-02-13T12:16:59;2.20;82.70
11229;DHT22;5671;47.936;8.716;2023-02-13T12:19:34;2.30;82.50
11229;DHT22;5671;47.936;8.716;2023-02-13T12:22:31;2.30;82.80
11229;DHT22;5671;47.936;8.716;2023-02-13T12:28:06;2.40;82.70
11229;DHT22;5671;47.936;8.716;2023-02-13T12:30:59;2.40;82.40
11229;DHT22;5671;47.936;8.716;2023-02-13T12:36:47;2.40;82.70
11229;DHT22;5671;47.936;8.716;2023-02-13T12:39:24;2.40;82.80
11229;DHT22;5671;47.936;8.716;2023-02-13T12:42:05;2.40;82.90
11229;DHT22;5671;47.936;8.716;2023-02-13T12:44:48;2.40;82.70
11229;DHT22;5671;47.936;8.716;2023-02-13T12:47:21;2.40;82.60
11229;DHT22;5671;47.936;8.716;2023-02-13T12:50:12;2.40;82.30
11229;DHT22;5671;47.936;8.716;2023-02-13T12:52:54;2.50;82.60
11229;DHT22;5671;47.936;8.716;2023-02-13T12:55:48;2.50;82.30
11229;DHT22;5671;47.936;8.716;2023-02-13T12:58:32;2.50;82.50
11229;DHT22;5671;47.936;8.716;2023-02-13T13:01:06;2.50;82.30
11229;DHT22;5671;47.936;8.716;2023-02-13T13:03:44;2.50;81.90
11229;DHT22;5671;47.936;8.716;2023-02-13T13:06:20;2.50;81.80
11229;DHT22;5671;47.936;8.716;2023-02-13T13:12:23;2.60;81.90
11229;DHT22;5671;47.936;8.716;2023-02-13T13:14:54;2.60;81.70
11229;DHT22;5671;47.936;8.716;2023-02-13T13:17:42;2.70;81.80
11229;DHT22;5671;47.936;8.716;2023-02-13T13:20:41;2.70;81.70
11229;DHT22;5671;47.936;8.716;2023-02-13T13:23:15;2.80;81.40
11229;DHT22;5671;47.936;8.716;2023-02-13T13:25:51;2.80;81.00
11229;DHT22;5671;47.936;8.716;2023-02-13T13:28:21;2.80;81.10
11229;DHT22;5671;47.936;8.716;2023-02-13T13:30:49;2.90;80.90
11229;DHT22;5671;47.936;8.716;2023-02-13T13:33:17;2.90;80.60
11229;DHT22;5671;47.936;8.716;2023-02-13T13:35:51;2.80;80.60
11229;DHT22;5671;47.936;8.716;2023-02-13T13:38:24;2.80;80.70
11229;DHT22;5671;47.936;8.716;2023-02-13T13:40:57;2.80;80.60
11229;DHT22;5671;47.936;8.716;2023-02-13T13:43:32;2.80;80.60
11229;DHT22;5671;47.936;8.716;2023-02-13T13:46:09;2.80;80.60
11229;DHT22;5671;47.936;8.716;2023-02-13T13:48:57;2.80;80.60
11229;DHT22;5671;47.936;8.716;2023-02-13T13:51:25;2.80;80.50
11229;DHT22;5671;47.936;8.716;2023-02-13T13:54:17;2.80;80.20
11229;DHT22;5671;47.936;8.716;2023-02-13T13:57:03;2.90;80.30
11229;DHT22;5671;47.936;8.716;2023-02-13T14:00:00;2.90;80.20
11229;DHT22;5671;47.936;8.716;2023-02-13T14:02:43;2.90;79.80
11229;DHT22;5671;47.936;8.716;2023-02-13T14:05:23;2.90;80.10
11229;DHT22;5671;47.936;8.716;2023-02-13T14:07:52;2.90;79.70
11229;DHT22;5671;47.936;8.716;2023-02-13T14:13:33;3.00;80.00
11229;DHT22;5671;47.936;8.716;2023-02-13T14:16:03;3.00;79.80
11229;DHT22;5671;47.936;8.716;2023-02-13T14:18:31;3.00;79.80
11229;DHT22;5671;47.936;8.716;2023-02-13T14:21:00;3.00;79.80
11229;DHT22;5671;47.936;8.716;2023-02-13T14:23:44;3.10;79.90
11229;DHT22;5671;47.936;8.716;2023-02-13T14:26:33;3.10;80.10
11229;DHT22;5671;47.936;8.716;2023-02-13T14:29:29;3.20;79.80
11229;DHT22;5671;47.936;8.716;2023-02-13T14:32:16;3.30;79.40
11229;DHT22;5671;47.936;8.716;2023-02-13T14:34:51;3.30;79.20
11229;DHT22;5671;47.936;8.716;2023-02-13T14:37:22;3.40;79.00
11229;DHT22;5671;47.936;8.716;2023-02-13T14:40:31;3.50;78.90
11229;DHT22;5671;47.936;8.716;2023-02-13T14:43:35;3.60;78.80
11229;DHT22;5671;47.936;8.716;2023-02-13T14:46:12;3.70;78.10
11229;DHT22;5671;47.936;8.716;2023-02-13T14:48:46;3.90;77.60
11229;DHT22;5671;47.936;8.716;2023-02-13T14:51:31;4.00;77.20
11229;DHT22;5671;47.936;8.716;2023-02-13T14:54:03;4.20;77.20
11229;DHT22;5671;47.936;8.716;2023-02-13T14:56:31;4.30;76.50
11229;DHT22;5671;47.936;8.716;2023-02-13T14:59:05;4.40;76.00
11229;DHT22;5671;47.936;8.716;2023-02-13T15:01:41;4.40;75.80
11229;DHT22;5671;47.936;8.716;2023-02-13T15:04:14;4.40;75.50
11229;DHT22;5671;47.936;8.716;2023-02-13T15:06:43;4.40;75.30
11229;DHT22;5671;47.936;8.716;2023-02-13T15:09:23;4.50;75.20
11229;DHT22;5671;47.936;8.716;2023-02-13T15:11:51;4.50;75.00
11229;DHT22;5671;47.936;8.716;2023-02-13T15:14:23;4.50;75.20
11229;DHT22;5671;47.936;8.716;2023-02-13T15:16:54;4.60;75.40
11229;DHT22;5671;47.936;8.716;2023-02-13T15:19:24;4.50;74.90
11229;DHT22;5671;47.936;8.716;2023-02-13T15:21:53;4.60;74.80
11229;DHT22;5671;47.936;8.716;2023-02-13T15:24:23;4.60;74.90
11229;DHT22;5671;47.936;8.716;2023-02-13T15:27:01;4.60;74.80
11229;DHT22;5671;47.936;8.716;2023-02-13T15:29:29;4.50;74.70
11229;DHT22;5671;47.936;8.716;2023-02-13T15:31:57;4.40;74.60
11229;DHT22;5671;47.936;8.716;2023-02-13T15:34:27;4.40;74.70
11229;DHT22;5671;47.936;8.716;2023-02-13T15:36:58;4.30;74.80
11229;DHT22;5671;47.936;8.716;2023-02-13T15:39:26;4.20;75.20
11229;DHT22;5671;47.936;8.716;2023-02-13T15:41:55;4.10;75.60
11229;DHT22;5671;47.936;8.716;2023-02-13T15:44:25;4.10;75.60
11229;DHT22;5671;47.936;8.716;2023-02-13T15:46:54;4.00;76.00
11229;DHT22;5671;47.936;8.716;2023-02-13T15:49:24;3.90;76.10
11229;DHT22;5671;47.936;8.716;2023-02-13T15:52:01;3.80;76.30
11229;DHT22;5671;47.936;8.716;2023-02-13T15:54:29;3.70;76.30
11229;DHT22;5671;47.936;8.716;2023-02-13T15:56:58;3.60;76.70
11229;DHT22;5671;47.936;8.716;2023-02-13T15:59:30;3.60;76.80
11229;DHT22;5671;47.936;8.716;2023-02-13T16:01:58;3.40;77.40
11229;DHT22;5671;47.936;8.716;2023-02-13T16:04:27;3.30;77.60
11229;DHT22;5671;47.936;8.716;2023-02-13T16:06:55;3.20;77.90
11229;DHT22;5671;47.936;8.716;2023-02-13T16:09:25;3.10;78.50
11229;DHT22;5671;47.936;8.716;2023-02-13T16:11:58;3.00;78.50
11229;DHT22;5671;47.936;8.716;2023-02-13T16:14:27;3.00;78.80
11229;DHT22;5671;47.936;8.716;2023-02-13T16:16:57;2.90;79.00
11229;DHT22;5671;47.936;8.716;2023-02-13T16:19:30;2.80;79.50
11229;DHT22;5671;47.936;8.716;2023-02-13T16:21:59;2.70;79.70
11229;DHT22;5671;47.936;8.716;2023-02-13T16:24:27;2.60;79.90
11229;DHT22;5671;47.936;8.716;2023-02-13T16:26:55;2.60;79.90
11229;DHT22;5671;47.936;8.716;2023-02-13T16:29:23;2.50;80.60
11229;DHT22;5671;47.936;8.716;2023-02-13T16:31:52;2.50;80.90
11229;DHT22;5671;47.936;8.716;2023-02-13T16:34:24;2.40;81.00
11229;DHT22;5671;47.936;8.716;2023-02-13T16:36:53;2.30;81.00
11229;DHT22;5671;47.936;8.716;2023-02-13T16:39:26;2.30;81.10
11229;DHT22;5671;47.936;8.716;2023-02-13T16:41:53;2.20;81.50
11229;DHT22;5671;47.936;8.716;2023-02-13T16:44:22;2.20;81.70
11229;DHT22;5671;47.936;8.716;2023-02-13T16:46:52;2.10;81.90
11229;DHT22;5671;47.936;8.716;2023-02-13T16:49:22;2.10;82.10